createdAt,value
2022-08-19T00:01:52.797Z,63.10
2022-08-19T00:04:23.960Z,63.10
2022-08-19T00:06:52.616Z,63.20
2022-08-19T00:09:24.115Z,63.20
2022-08-19T00:11:53.300Z,63.20
2022-08-19T00:14:22.856Z,63.20
2022-08-19T00:16:52.471Z,63.20
2022-08-19T00:19:20.664Z,63.20
2022-08-19T00:21:48.862Z,63.20
2022-08-19T00:24:17.741Z,63.20
2022-08-19T00:26:47.655Z,63.20
2022-08-19T00:29:19.904Z,63.20
2022-08-19T00:31:50.714Z,63.20
2022-08-19T00:34:19.033Z,63.20
2022-08-19T00:36:47.784Z,63.20
2022-08-19T00:39:17.410Z,63.30
2022-08-19T00:41:49.851Z,63.20
2022-08-19T00:44:26.687Z,63.30
2022-08-19T00:46:58.387Z,63.20
2022-08-19T00:49:33.705Z,63.20
2022-08-19T00:52:06.368Z,63.20
2022-08-19T00:54:35.127Z,63.30
2022-08-19T00:57:08.951Z,63.30
2022-08-19T01:00:00.807Z,63.30
2022-08-19T01:02:28.002Z,63.30
2022-08-19T01:04:56.661Z,63.30
2022-08-19T01:07:25.036Z,63.30
2022-08-19T01:09:53.558Z,63.30
2022-08-19T01:12:23.553Z,63.30
2022-08-19T01:14:54.379Z,63.30
2022-08-19T01:17:23.107Z,63.30
2022-08-19T01:19:51.365Z,63.30
2022-08-19T01:22:33.412Z,63.30
2022-08-19T01:25:02.432Z,63.30
2022-08-19T01:27:43.112Z,63.20
2022-08-19T01:30:14.077Z,63.20
2022-08-19T01:32:42.346Z,63.30
2022-08-19T01:35:12.814Z,63.30
2022-08-19T01:37:52.162Z,63.30
2022-08-19T01:40:22.225Z,63.40
2022-08-19T01:42:50.679Z,63.30
2022-08-19T01:45:19.451Z,63.30
2022-08-19T01:47:57.641Z,63.30
2022-08-19T01:50:31.836Z,63.30
2022-08-19T01:53:06.379Z,63.20
2022-08-19T01:55:40.560Z,63.30
2022-08-19T01:58:12.923Z,63.30
2022-08-19T02:00:41.506Z,63.30
2022-08-19T02:03:10.229Z,63.40
2022-08-19T02:05:38.643Z,63.90
2022-08-19T02:08:09.304Z,63.40
2022-08-19T02:10:40.009Z,63.30
2022-08-19T02:13:08.179Z,63.30
2022-08-19T02:15:36.353Z,63.30
2022-08-19T02:18:04.514Z,63.40
2022-08-19T02:20:32.722Z,63.30
2022-08-19T02:23:02.273Z,63.30
2022-08-19T02:25:31.812Z,63.40
2022-08-19T02:27:59.965Z,63.40
2022-08-19T02:30:28.891Z,63.40
2022-08-19T02:32:57.226Z,63.30
2022-08-19T02:35:25.906Z,63.40
2022-08-19T02:38:11.402Z,63.40
2022-08-19T02:40:40.921Z,63.40
2022-08-19T02:43:10.656Z,63.40
2022-08-19T02:45:41.546Z,63.40
2022-08-19T02:48:21.610Z,63.40
2022-08-19T02:50:56.249Z,63.40
2022-08-19T02:53:26.049Z,63.40
2022-08-19T02:55:55.664Z,63.50
2022-08-19T02:58:25.338Z,63.40
2022-08-19T03:00:56.172Z,63.40
2022-08-19T03:03:24.635Z,63.40
2022-08-19T03:05:56.995Z,63.40
2022-08-19T03:08:26.861Z,63.40
2022-08-19T03:10:56.610Z,63.60
2022-08-19T03:13:25.321Z,63.40
2022-08-19T03:15:53.587Z,63.40
2022-08-19T03:18:23.251Z,63.40
2022-08-19T03:20:53.841Z,63.40
2022-08-19T03:23:22.552Z,63.40
2022-08-19T03:25:58.394Z,63.40
2022-08-19T03:28:41.953Z,63.40
2022-08-19T03:31:42.099Z,63.40
2022-08-19T03:34:05.012Z,63.40
2022-08-19T03:36:36.313Z,63.40
2022-08-19T03:39:04.838Z,63.40
2022-08-19T03:41:45.116Z,63.50
2022-08-19T03:44:17.781Z,63.40
2022-08-19T03:46:47.697Z,63.40
2022-08-19T03:49:16.075Z,63.50
2022-08-19T03:51:47.320Z,63.50
2022-08-19T03:54:17.222Z,63.50
2022-08-19T03:56:48.327Z,63.50
2022-08-19T03:59:21.339Z,64.10
2022-08-19T04:01:49.497Z,63.50
2022-08-19T04:04:17.672Z,64.10
2022-08-19T04:06:48.864Z,63.50
2022-08-19T04:09:17.565Z,63.50
2022-08-19T04:11:49.365Z,63.50
2022-08-19T04:14:21.579Z,63.50
2022-08-19T04:16:50.745Z,63.50
2022-08-19T04:19:19.926Z,63.50
2022-08-19T04:21:50.874Z,63.50
2022-08-19T04:24:19.979Z,63.50
2022-08-19T04:26:48.923Z,63.50
2022-08-19T04:29:22.974Z,63.50
2022-08-19T04:31:51.612Z,63.50
2022-08-19T04:34:23.504Z,63.50
2022-08-19T04:36:53.196Z,63.40
2022-08-19T04:39:24.105Z,63.50
2022-08-19T04:42:09.445Z,63.40
2022-08-19T04:44:46.374Z,63.50
2022-08-19T04:47:14.704Z,63.50
2022-08-19T04:49:42.846Z,63.40
2022-08-19T04:52:10.982Z,63.40
2022-08-19T04:54:39.492Z,63.50
2022-08-19T04:57:11.092Z,63.50
2022-08-19T04:59:41.278Z,63.50
2022-08-19T05:02:11.527Z,63.50
2022-08-19T05:04:40.692Z,63.50
2022-08-19T05:07:10.824Z,63.40
2022-08-19T05:09:57.969Z,63.40
2022-08-19T05:12:28.936Z,63.50
2022-08-19T05:14:59.909Z,63.50
2022-08-19T05:17:32.271Z,63.40
2022-08-19T05:20:19.214Z,63.40
2022-08-19T05:22:49.315Z,63.40
2022-08-19T05:25:20.745Z,63.40
2022-08-19T05:27:49.722Z,63.40
2022-08-19T05:30:24.380Z,63.40
2022-08-19T05:33:09.127Z,63.40
2022-08-19T05:35:38.577Z,63.40
2022-08-19T05:38:08.196Z,63.40
2022-08-19T05:40:36.987Z,63.40
2022-08-19T05:43:05.561Z,63.40
2022-08-19T05:45:39.527Z,63.40
2022-08-19T05:48:07.851Z,63.40
2022-08-19T05:50:38.428Z,63.40
2022-08-19T05:53:06.950Z,63.40
2022-08-19T05:55:35.383Z,63.50
2022-08-19T05:58:03.792Z,63.40
2022-08-19T06:00:32.142Z,63.40
2022-08-19T06:03:12.507Z,63.50
2022-08-19T06:05:49.740Z,63.50
2022-08-19T06:08:33.592Z,63.40
2022-08-19T06:11:15.983Z,63.40
2022-08-19T06:13:44.388Z,63.50
2022-08-19T06:16:12.615Z,63.50
2022-08-19T06:18:42.127Z,63.50
2022-08-19T06:21:10.318Z,63.50
2022-08-19T06:23:38.791Z,63.50
2022-08-19T06:26:07.112Z,63.50
2022-08-19T06:28:35.225Z,63.60
2022-08-19T06:31:08.955Z,63.60
2022-08-19T06:33:37.125Z,63.60
2022-08-19T06:36:07.101Z,63.60
2022-08-19T06:38:35.471Z,63.60
2022-08-19T06:41:07.850Z,63.60
2022-08-19T06:43:38.117Z,63.60
2022-08-19T06:46:14.606Z,63.60
2022-08-19T06:48:45.380Z,63.70
2022-08-19T06:51:19.620Z,63.70
2022-08-19T06:53:48.265Z,63.60
2022-08-19T06:56:18.333Z,63.70
2022-08-19T06:58:47.560Z,63.70
2022-08-19T07:01:15.848Z,63.70
2022-08-19T07:03:44.069Z,63.70
2022-08-19T07:06:43.287Z,63.70
2022-08-19T07:09:07.611Z,63.80
2022-08-19T07:11:36.045Z,63.80
2022-08-19T07:14:05.170Z,63.80
2022-08-19T07:16:33.297Z,63.80
2022-08-19T07:19:11.598Z,63.80
2022-08-19T07:21:45.795Z,63.80
2022-08-19T07:24:14.345Z,63.90
2022-08-19T07:26:44.690Z,63.90
2022-08-19T07:29:13.900Z,63.90
2022-08-19T07:31:43.586Z,63.90
2022-08-19T07:34:14.374Z,64.00
2022-08-19T07:36:43.211Z,64.00
2022-08-19T07:39:16.232Z,64.00
2022-08-19T07:41:45.828Z,64.00
2022-08-19T07:44:15.331Z,64.00
2022-08-19T07:46:48.268Z,64.00
2022-08-19T07:49:20.105Z,64.00
2022-08-19T07:51:50.344Z,64.10
2022-08-19T07:54:21.423Z,64.10
2022-08-19T07:56:50.495Z,64.20
2022-08-19T07:59:21.474Z,64.30
2022-08-19T08:01:51.134Z,64.20
2022-08-19T08:04:38.095Z,64.90
2022-08-19T08:07:24.052Z,64.20
2022-08-19T08:12:34.796Z,64.20
2022-08-19T08:15:08.880Z,64.20
2022-08-19T08:17:51.508Z,64.20
2022-08-19T08:20:21.375Z,64.30
2022-08-19T08:23:07.761Z,64.30
2022-08-19T08:25:38.803Z,64.30
2022-08-19T08:28:11.372Z,64.30
2022-08-19T08:30:48.415Z,64.30
2022-08-19T08:33:30.224Z,64.30
2022-08-19T08:36:03.990Z,64.30
2022-08-19T08:38:38.727Z,64.30
2022-08-19T08:41:20.039Z,64.20
2022-08-19T08:43:50.181Z,64.30
2022-08-19T08:46:30.924Z,64.30
2022-08-19T08:49:08.385Z,64.30
2022-08-19T08:54:16.864Z,64.30
2022-08-19T08:56:46.851Z,64.30
2022-08-19T08:59:21.524Z,64.30
2022-08-19T09:01:49.992Z,64.30
2022-08-19T09:04:18.589Z,64.30
2022-08-19T09:06:56.968Z,64.20
2022-08-19T09:09:33.303Z,64.20
2022-08-19T09:12:13.082Z,64.20
2022-08-19T09:14:52.026Z,64.20
2022-08-19T09:17:29.128Z,64.20
2022-08-19T09:20:01.933Z,64.20
2022-08-19T09:22:30.105Z,64.20
2022-08-19T09:24:58.579Z,64.20
2022-08-19T09:27:42.296Z,64.30
2022-08-19T09:30:14.637Z,64.20
2022-08-19T09:32:44.491Z,64.20
2022-08-19T09:35:13.580Z,64.20
2022-08-19T09:37:43.196Z,64.30
2022-08-19T09:40:13.301Z,64.20
2022-08-19T09:42:49.602Z,64.30
2022-08-19T09:45:22.184Z,64.30
2022-08-19T09:47:52.246Z,64.30
2022-08-19T09:50:23.754Z,64.30
2022-08-19T09:52:54.072Z,64.30
2022-08-19T09:55:31.784Z,64.90
2022-08-19T09:58:02.835Z,64.30
2022-08-19T10:00:31.998Z,64.20
2022-08-19T10:03:00.999Z,64.20
2022-08-19T10:05:48.422Z,64.20
2022-08-19T10:08:18.051Z,64.20
2022-08-19T10:10:47.302Z,64.20
2022-08-19T10:13:22.904Z,64.20
2022-08-19T10:15:52.144Z,64.20
2022-08-19T10:18:22.557Z,64.20
2022-08-19T10:20:52.814Z,64.20
2022-08-19T10:23:22.329Z,64.10
2022-08-19T10:25:50.896Z,64.10
2022-08-19T10:28:20.484Z,64.10
2022-08-19T10:30:49.097Z,64.10
2022-08-19T10:33:36.530Z,64.00
2022-08-19T10:36:08.721Z,64.00
2022-08-19T10:38:37.172Z,63.90
2022-08-19T10:41:14.230Z,63.90
2022-08-19T10:43:45.982Z,63.90
2022-08-19T10:46:17.007Z,63.80
2022-08-19T10:48:45.853Z,64.50
2022-08-19T10:51:34.251Z,63.70
2022-08-19T10:54:03.207Z,63.70
2022-08-19T10:57:01.902Z,63.70
2022-08-19T10:59:35.991Z,63.70
2022-08-19T11:02:07.063Z,63.70
2022-08-19T11:04:35.872Z,63.70
2022-08-19T11:07:04.331Z,63.60
2022-08-19T11:09:34.303Z,63.70
2022-08-19T11:12:04.813Z,63.60
2022-08-19T11:14:35.549Z,63.50
2022-08-19T11:17:05.024Z,63.50
2022-08-19T11:19:34.212Z,63.50
2022-08-19T11:22:03.962Z,63.50
2022-08-19T11:24:33.745Z,63.50
2022-08-19T11:27:07.550Z,63.50
2022-08-19T11:29:39.521Z,63.50
2022-08-19T11:32:09.881Z,63.60
2022-08-19T11:34:38.510Z,63.40
2022-08-19T11:37:07.472Z,63.40
2022-08-19T11:39:38.041Z,63.40
2022-08-19T11:42:28.043Z,63.40
2022-08-19T11:44:57.809Z,63.30
2022-08-19T11:47:27.190Z,63.30
2022-08-19T11:49:55.519Z,63.30
2022-08-19T11:52:23.689Z,63.20
2022-08-19T11:54:51.831Z,63.20
2022-08-19T11:57:20.748Z,63.20
2022-08-19T11:59:52.280Z,63.10
2022-08-19T12:02:22.662Z,63.10
2022-08-19T12:04:50.989Z,63.10
2022-08-19T12:07:19.352Z,63.10
2022-08-19T12:09:48.590Z,63.10
2022-08-19T12:12:17.502Z,63.00
2022-08-19T12:14:47.405Z,63.00
2022-08-19T12:17:15.540Z,63.00
2022-08-19T12:19:45.436Z,62.90
2022-08-19T12:22:13.548Z,63.00
2022-08-19T12:24:42.228Z,62.90
2022-08-19T12:27:12.958Z,62.90
2022-08-19T12:29:42.440Z,62.90
2022-08-19T12:32:12.147Z,62.90
2022-08-19T12:34:41.129Z,62.80
2022-08-19T12:37:11.924Z,62.70
2022-08-19T12:39:42.847Z,62.70
2022-08-19T12:42:11.838Z,62.60
2022-08-19T12:44:41.772Z,62.60
2022-08-19T12:47:14.655Z,62.50
2022-08-19T12:49:54.568Z,62.50
2022-08-19T12:52:25.771Z,62.50
2022-08-19T12:54:55.314Z,62.50
2022-08-19T12:57:31.508Z,62.50
2022-08-19T13:00:01.253Z,62.40
2022-08-19T13:02:29.660Z,62.40
2022-08-19T13:04:59.516Z,62.40
2022-08-19T13:07:29.208Z,62.30
2022-08-19T13:10:00.159Z,62.30
2022-08-19T13:12:28.546Z,62.30
2022-08-19T13:15:00.199Z,62.30
2022-08-19T13:17:29.061Z,62.30
2022-08-19T13:19:57.208Z,62.30
2022-08-19T13:22:26.002Z,62.20
2022-08-19T13:24:55.676Z,62.30
2022-08-19T13:27:23.781Z,62.30
2022-08-19T13:30:09.440Z,62.20
2022-08-19T13:32:54.787Z,62.20
2022-08-19T13:35:22.988Z,62.20
2022-08-19T13:37:51.343Z,62.10
2022-08-19T13:40:24.748Z,62.10
2022-08-19T13:42:54.885Z,62.10
2022-08-19T13:45:25.313Z,62.10
2022-08-19T13:47:59.177Z,62.10
2022-08-19T13:50:29.956Z,62.10
2022-08-19T13:52:58.515Z,62.00
2022-08-19T13:55:28.789Z,62.00
2022-08-19T13:57:58.651Z,62.00
2022-08-19T14:00:28.733Z,62.00
2022-08-19T14:02:58.742Z,61.90
2022-08-19T14:05:28.415Z,61.90
2022-08-19T14:07:57.062Z,61.90
2022-08-19T14:10:27.663Z,61.80
2022-08-19T14:12:56.466Z,61.80
2022-08-19T14:15:25.155Z,61.70
2022-08-19T14:17:53.580Z,61.80
2022-08-19T14:20:22.099Z,61.70
2022-08-19T14:22:54.933Z,61.70
2022-08-19T14:25:25.091Z,61.70
2022-08-19T14:27:54.748Z,61.70
2022-08-19T14:30:27.836Z,61.70
2022-08-19T14:32:56.266Z,61.60
2022-08-19T14:35:24.745Z,61.70
2022-08-19T14:37:56.346Z,61.60
2022-08-19T14:40:27.610Z,61.70
2022-08-19T14:43:00.148Z,61.60
2022-08-19T14:45:30.508Z,61.60
2022-08-19T14:48:00.301Z,61.60
2022-08-19T14:50:29.096Z,61.60
2022-08-19T14:53:03.597Z,61.50
2022-08-19T14:55:43.637Z,61.50
2022-08-19T14:58:29.527Z,61.50
2022-08-19T15:01:00.725Z,61.50
2022-08-19T15:03:29.653Z,61.50
2022-08-19T15:05:59.047Z,61.50
2022-08-19T15:08:27.678Z,61.40
2022-08-19T15:10:56.418Z,61.40
2022-08-19T15:13:27.107Z,61.40
2022-08-19T15:15:55.357Z,61.40
2022-08-19T15:18:23.612Z,61.30
2022-08-19T15:20:52.643Z,61.30
2022-08-19T15:23:21.788Z,61.30
2022-08-19T15:25:52.989Z,61.30
2022-08-19T15:28:21.193Z,61.20
2022-08-19T15:30:51.002Z,61.20
2022-08-19T15:33:21.016Z,61.10
2022-08-19T15:35:51.549Z,61.10
2022-08-19T15:38:22.363Z,61.10
2022-08-19T15:40:51.600Z,61.10
2022-08-19T15:43:22.164Z,61.10
2022-08-19T15:45:51.715Z,61.00
2022-08-19T15:48:19.848Z,61.10
2022-08-19T15:50:48.065Z,61.00
2022-08-19T15:53:17.168Z,60.90
2022-08-19T15:55:48.531Z,61.00
2022-08-19T15:58:34.486Z,61.00
2022-08-19T16:01:24.134Z,61.00
2022-08-19T16:04:14.545Z,60.90
2022-08-19T16:06:46.015Z,60.90
2022-08-19T16:09:14.171Z,60.90
2022-08-19T16:11:45.927Z,60.90
2022-08-19T16:14:14.992Z,60.90
2022-08-19T16:16:46.746Z,60.90
2022-08-19T16:19:17.446Z,60.80
2022-08-19T16:21:46.567Z,60.80
2022-08-19T16:24:17.440Z,60.80
2022-08-19T16:26:46.966Z,60.90
2022-08-19T16:29:33.943Z,60.90
2022-08-19T16:32:07.201Z,60.80
2022-08-19T16:34:35.402Z,60.80
2022-08-19T16:37:03.578Z,60.80
2022-08-19T16:39:31.787Z,60.90
2022-08-19T16:42:00.340Z,60.80
2022-08-19T16:44:29.572Z,60.90
2022-08-19T16:46:59.571Z,60.70
2022-08-19T16:49:54.130Z,60.80
2022-08-19T16:52:19.201Z,60.70
2022-08-19T16:54:47.894Z,60.70
2022-08-19T16:57:16.879Z,60.70
2022-08-19T16:59:48.445Z,60.70
2022-08-19T17:02:18.187Z,60.70
2022-08-19T17:04:57.991Z,60.70
2022-08-19T17:07:27.437Z,60.80
2022-08-19T17:09:55.837Z,60.70
2022-08-19T17:12:30.197Z,60.70
2022-08-19T17:15:00.682Z,60.70
2022-08-19T17:17:29.720Z,60.80
2022-08-19T17:20:00.337Z,61.40
2022-08-19T17:22:28.964Z,60.80
2022-08-19T17:24:58.037Z,60.80
2022-08-19T17:27:32.501Z,60.70
2022-08-19T17:30:02.645Z,60.80
2022-08-19T17:32:34.331Z,60.70
2022-08-19T17:35:04.740Z,60.70
2022-08-19T17:37:34.952Z,60.70
2022-08-19T17:40:03.432Z,60.70
2022-08-19T17:42:31.974Z,60.70
2022-08-19T17:45:00.159Z,60.80
2022-08-19T17:47:29.013Z,60.80
2022-08-19T17:49:57.596Z,60.90
2022-08-19T17:52:27.278Z,60.80
2022-08-19T17:54:56.010Z,60.90
2022-08-19T17:57:24.385Z,60.90
2022-08-19T17:59:52.577Z,60.90
2022-08-19T18:02:22.006Z,60.90
2022-08-19T18:04:50.583Z,60.80
2022-08-19T18:07:21.515Z,60.90
2022-08-19T18:09:52.786Z,60.90
2022-08-19T18:12:26.638Z,60.90
2022-08-19T18:14:54.798Z,60.90
2022-08-19T18:17:24.437Z,60.90
2022-08-19T18:19:52.695Z,60.80
2022-08-19T18:22:28.651Z,60.90
2022-08-19T18:24:59.458Z,60.80
2022-08-19T18:27:28.788Z,60.80
2022-08-19T18:29:59.432Z,60.80
2022-08-19T18:32:29.801Z,60.80
2022-08-19T18:34:58.525Z,60.80
2022-08-19T18:37:27.411Z,60.80
2022-08-19T18:40:14.941Z,60.90
2022-08-19T18:43:01.752Z,60.80
2022-08-19T18:45:47.350Z,60.80
2022-08-19T18:48:32.892Z,60.80
2022-08-19T18:51:02.334Z,60.90
2022-08-19T18:53:32.282Z,60.90
2022-08-19T18:56:02.090Z,60.90
2022-08-19T18:58:34.216Z,60.90
2022-08-19T19:01:11.453Z,60.90
2022-08-19T19:03:41.574Z,60.90
2022-08-19T19:06:09.885Z,60.90
2022-08-19T19:08:38.801Z,60.90
2022-08-19T19:11:08.868Z,60.80
2022-08-19T19:13:39.748Z,60.90
2022-08-19T19:16:10.071Z,60.90
2022-08-19T19:18:38.318Z,60.90
2022-08-19T19:21:07.786Z,60.90
2022-08-19T19:23:40.593Z,61.00
2022-08-19T19:26:10.827Z,60.90
2022-08-19T19:28:44.193Z,60.90
2022-08-19T19:31:14.361Z,60.90
2022-08-19T19:33:43.236Z,60.90
2022-08-19T19:36:12.244Z,61.00
2022-08-19T19:38:48.026Z,61.00
2022-08-19T19:41:23.354Z,61.00
2022-08-19T19:44:09.910Z,61.00
2022-08-19T19:46:43.484Z,61.00
2022-08-19T19:49:12.937Z,61.00
2022-08-19T19:51:41.579Z,61.00
2022-08-19T19:54:13.859Z,61.00
2022-08-19T19:56:45.076Z,61.10
2022-08-19T19:59:13.546Z,61.10
2022-08-19T20:01:46.899Z,61.10
2022-08-19T20:04:15.730Z,61.10
2022-08-19T20:06:44.195Z,61.10
2022-08-19T20:09:12.231Z,61.10
2022-08-19T20:11:45.977Z,61.20
2022-08-19T20:14:17.095Z,61.20
2022-08-19T20:16:46.320Z,61.20
2022-08-19T20:19:16.911Z,61.20
2022-08-19T20:21:49.604Z,61.20
2022-08-19T20:24:22.517Z,61.20
2022-08-19T20:26:53.578Z,61.20
2022-08-19T20:29:38.283Z,61.20
2022-08-19T20:32:08.599Z,61.30
2022-08-19T20:34:37.234Z,61.20
2022-08-19T20:37:05.498Z,61.20
2022-08-19T20:39:33.671Z,61.30
2022-08-19T20:42:03.171Z,61.30
2022-08-19T20:44:31.328Z,61.30
2022-08-19T20:47:03.356Z,61.30
2022-08-19T20:49:32.128Z,61.30
2022-08-19T20:52:00.524Z,61.30
2022-08-19T20:54:28.949Z,61.40
2022-08-19T20:56:57.476Z,61.30
2022-08-19T20:59:27.036Z,61.40
2022-08-19T21:01:55.565Z,61.40
2022-08-19T21:04:23.715Z,61.40
2022-08-19T21:06:52.235Z,62.00
2022-08-19T21:09:20.486Z,61.40
2022-08-19T21:11:49.007Z,61.50
2022-08-19T21:14:19.031Z,61.50
2022-08-19T21:16:49.925Z,61.40
2022-08-19T21:19:20.921Z,61.50
2022-08-19T21:21:52.127Z,61.50
2022-08-19T21:24:20.328Z,61.50
2022-08-19T21:26:51.331Z,61.50
2022-08-19T21:29:19.837Z,61.50
2022-08-19T21:31:50.227Z,61.50
2022-08-19T21:34:18.519Z,61.50
2022-08-19T21:36:47.833Z,61.50
2022-08-19T21:39:15.936Z,61.60
2022-08-19T21:41:44.068Z,61.60
2022-08-19T21:44:12.234Z,61.60
2022-08-19T21:46:40.376Z,61.60
2022-08-19T21:49:09.851Z,61.60
2022-08-19T21:51:38.402Z,61.60
2022-08-19T21:54:06.627Z,61.60
2022-08-19T21:56:35.055Z,61.60
2022-08-19T21:59:03.227Z,61.70
2022-08-19T22:01:31.325Z,61.70
2022-08-19T22:03:59.505Z,61.60
2022-08-19T22:06:29.094Z,61.70
2022-08-19T22:08:57.431Z,61.70
2022-08-19T22:11:26.515Z,61.70
2022-08-19T22:13:56.463Z,61.70
2022-08-19T22:16:25.326Z,61.70
2022-08-19T22:18:53.697Z,61.70
2022-08-19T22:21:37.415Z,61.70
2022-08-19T22:24:10.894Z,61.70
2022-08-19T22:26:39.008Z,61.70
2022-08-19T22:29:07.540Z,61.70
2022-08-19T22:31:37.445Z,61.70
2022-08-19T22:34:06.192Z,61.80
2022-08-19T22:36:35.459Z,61.70
2022-08-19T22:39:04.182Z,61.80
2022-08-19T22:41:34.011Z,61.80
2022-08-19T22:44:02.227Z,61.80
2022-08-19T22:46:34.309Z,61.80
2022-08-19T22:49:02.506Z,61.80
2022-08-19T22:51:48.769Z,61.90
2022-08-19T22:54:17.352Z,61.90
2022-08-19T22:56:47.094Z,61.80
2022-08-19T22:59:15.260Z,61.90
2022-08-19T23:01:43.429Z,61.90
2022-08-19T23:04:11.876Z,61.90
2022-08-19T23:06:42.175Z,61.90
2022-08-19T23:09:16.923Z,61.90
2022-08-19T23:11:47.488Z,61.90
2022-08-19T23:14:17.546Z,61.90
2022-08-19T23:16:50.744Z,61.90
2022-08-19T23:19:20.244Z,62.00
2022-08-19T23:21:48.834Z,62.00
2022-08-19T23:24:16.967Z,62.00
2022-08-19T23:27:00.393Z,62.00
2022-08-19T23:29:45.876Z,62.00
2022-08-19T23:32:17.058Z,62.00
2022-08-19T23:34:45.389Z,62.00
2022-08-19T23:37:13.752Z,62.00
2022-08-19T23:39:42.658Z,62.00
2022-08-19T23:42:13.643Z,62.00
2022-08-19T23:44:52.052Z,62.10
2022-08-19T23:47:21.563Z,62.00
2022-08-19T23:49:50.596Z,62.10
2022-08-19T23:52:18.759Z,62.10
2022-08-19T23:54:46.894Z,62.70
2022-08-19T23:57:16.584Z,62.10
2022-08-19T23:59:46.117Z,62.10
